Wetterstation-Oberesslingen
Wetterdaten: aktuell Dienstag, 19.03.2019 15:45
Datum Zeit Temperatur Temp+5cm Luftfeuchte Luftdruck Regen Wind Richtung Richtung Sonnenschein Zeit Regen ET Solar Taupunkt Windchill Windben
19.03.2019 15:45 10,4 C 12,2 C 41 % 1028,4 hPa 0,0 l/m 8,3 km/h (2 Bft) N-NO 20 48 min 0 min 0,203 mm 432 W/m -2,3 C 9,1 C 18,8 km/h (3 Bft)
19.03.2019 14:45 9,4 C 10,0 C 44 % 1028,2 hPa 0,0 l/m 6,5 km/h (2 Bft) N-NO 29 39 min 0 min 0,228 mm 151 W/m -2,2 C 9,4 C 14,0 km/h (3 Bft)
19.03.2019 13:45 10,3 C 13,3 C 39 % 1028,4 hPa 0,0 l/m 3,3 km/h (1 Bft) W-NW 300 36 min 0 min 0,001 mm 624 W/m -3,0 C 10,3 C 14,0 km/h (3 Bft)
19.03.2019 12:45 9,1 C 15,0 C 51 % 1028,5 hPa 0,0 l/m 1,1 km/h (1 Bft) W-NW 294 24 min 0 min 0,203 mm 809 W/m -0,5 C 9,1 C 1,1 km/h (1 Bft)
19.03.2019 11:45 9,3 C 14,4 C 58 % 1028,6 hPa 0,0 l/m 1,2 km/h (1 Bft) SO 142 33 min 0 min 0,279 mm 830 W/m 1,5 C 9,3 C 2,7 km/h (1 Bft)
19.03.2019 10:45 8,2 C 16,7 C 61 % 1028,5 hPa 0,0 l/m 1,1 km/h (1 Bft) S-SO 153 60 min 0 min 0,178 mm 775 W/m 1,1 C 8,2 C 1,1 km/h (1 Bft)
19.03.2019 09:45 6,3 C 15,0 C 75 % 1028,4 hPa 0,0 l/m 1,1 km/h (1 Bft) W 273 48 min 0 min 0,102 mm 476 W/m 2,2 C 6,3 C 1,1 km/h (1 Bft)
19.03.2019 08:45 4,0 C 10,0 C 83 % 1028,1 hPa 0,4 l/m 1,1 km/h (1 Bft) S-SO 160 60 min 6 min 0,025 mm 397 W/m 1,4 C 4,0 C 1,1 km/h (1 Bft)
19.03.2019 07:45 1,9 C 3,3 C 91 % 1027,7 hPa 0,0 l/m 1,1 km/h (1 Bft) O 97 6 min 0 min 0,000 mm 171 W/m 0,6 C 1,9 C 1,1 km/h (1 Bft)
19.03.2019 06:45 1,3 C 0,6 C 92 % 1027,2 hPa 0,0 l/m 1,1 km/h (1 Bft) O 99 0 min 0 min 0,000 mm 7 W/m 0,1 C 1,3 C 1,1 km/h (1 Bft)
19.03.2019 05:45 1,1 C 0,6 C 93 % 1026,5 hPa 0,0 l/m 1,1 km/h (1 Bft) O-SO 123 0 min 0 min 0,000 mm 0 W/m 0,1 C 1,1 C 1,1 km/h (1 Bft)
19.03.2019 04:45 0,9 C 0,0 C 93 % 1026,0 hPa 0,0 l/m 1,1 km/h (1 Bft) O-SO 123 0 min 0 min 0,000 mm 0 W/m -0,1 C 0,9 C 1,1 km/h (1 Bft)
19.03.2019 03:45 1,1 C 0,0 C 93 % 1025,6 hPa 0,0 l/m 1,2 km/h (1 Bft) O-SO 111 0 min 0 min 0,000 mm 0 W/m 0,1 C 1,1 C 2,7 km/h (1 Bft)
19.03.2019 02:45 0,7 C 0,0 C 93 % 1025,4 hPa 0,0 l/m 1,1 km/h (1 Bft) O 92 0 min 0 min 0,000 mm 0 W/m -0,3 C 0,7 C 1,1 km/h (1 Bft)
19.03.2019 01:45 0,3 C -2,2 C 92 % 1025,5 hPa 0,0 l/m 1,1 km/h (1 Bft) O 92 0 min 0 min 0,000 mm 0 W/m -0,8 C 0,3 C 1,1 km/h (1 Bft)
19.03.2019 00:45 0,4 C -2,2 C 92 % 1025,2 hPa 0,0 l/m 1,1 km/h (1 Bft) O-SO 121 0 min 0 min 0,000 mm 0 W/m -0,7 C 0,4 C 1,1 km/h (1 Bft)
18.03.2019 23:45 0,9 C -0,6 C 91 % 1025,2 hPa 0,0 l/m 1,1 km/h (1 Bft) O-SO 121 0 min 0 min 0,000 mm 0 W/m -0,4 C 0,9 C 1,1 km/h (1 Bft)
18.03.2019 22:45 1,7 C -0,6 C 88 % 1024,9 hPa 0,0 l/m 1,2 km/h (1 Bft) O-SO 121 0 min 0 min 0,000 mm 0 W/m -0,1 C 1,7 C 2,7 km/h (1 Bft)
18.03.2019 21:45 3,7 C 2,2 C 84 % 1024,4 hPa 0,0 l/m 3,9 km/h (1 Bft) O-SO 120 0 min 0 min 0,000 mm 0 W/m 1,3 C 3,7 C 6,0 km/h (2 Bft)
18.03.2019 20:45 3,9 C 2,8 C 83 % 1024,1 hPa 0,0 l/m 1,1 km/h (1 Bft) SO 124 0 min 0 min 0,000 mm 0 W/m 1,3 C 3,9 C 1,1 km/h (1 Bft)
18.03.2019 19:45 3,8 C 2,8 C 84 % 1023,4 hPa 0,2 l/m 1,7 km/h (1 Bft) O 96 0 min 3 min 0,000 mm 0 W/m 1,4 C 3,8 C 6,0 km/h (2 Bft)
18.03.2019 18:45 4,9 C 3,9 C 74 % 1023,2 hPa 0,0 l/m 8,0 km/h (2 Bft) NO 51 0 min 0 min 0,051 mm 0 W/m 0,7 C 3,5 C 22,1 km/h (4 Bft)
18.03.2019 17:45 6,8 C 5,0 C 71 % 1021,6 hPa 0,0 l/m 5,1 km/h (1 Bft) SO 141 45 min 0 min 0,076 mm 53 W/m 1,9 C 6,8 C 9,2 km/h (2 Bft)
18.03.2019 16:45 6,1 C 6,7 C 79 % 1021,4 hPa 0,2 l/m 1,8 km/h (1 Bft) S-SW 196 9 min 3 min 0,001 mm 350 W/m 2,7 C 6,1 C 4,3 km/h (1 Bft)
18.03.2019 16:00 5,9 C 4,4 C 75 % 1021,2 hPa 0,0 l/m 12,2 km/h (2 Bft) W-NW 285 0 min 0 min 0,000 mm 120 W/m 1,8 C 1,7 C 22,1 km/h (4 Bft)
_ Min-Zeit 02:06 00:39 14:03 16:03 - 19:36 - - - - - - 14:03 02:06 19:36
Minimum _ -0,1 C -2,2 C 35 % 1021,1 hPa - 1,1 km/h (1 Bft) - - - - - - -4,5 C -0,1 C 1,1 km/h (1 Bft)
_ Max-Zeit 14:27 10:21 02:27 12:09 16:03 16:00 - - 16:39 16:03 11:03 11:51 10:39 14:24 16:18
Maximum _ 10,9 C 17,2 C 94 % 1028,8 hPa 0,2 l/m 12,2 km/h
W-NW (2 Bft)
- - 3 min 3 min 0,279 mm 891 W/m 3,1 C 10,8 C 23,7 km/h
W-NW (4 Bft)
Durchschnitt _ 4,4 C 4,8 C 78 % 1025,6 hPa #0,8 l/m 2,8 km/h (1 Bft) O-SO - #5:54 h #6 min. #1,422 mm 399 W/m 0,5 C 4,0 C 5,4 km/h (2 Bft)